createdAt,value
2018-01-14T00:00:55.932Z,86.9
2018-01-14T00:02:00.283Z,87.2
2018-01-14T00:03:03.716Z,86.8
2018-01-14T00:04:07.263Z,86.5
2018-01-14T00:05:10.691Z,86.8
2018-01-14T00:06:14.609Z,86.8
2018-01-14T00:07:17.807Z,86.7
2018-01-14T00:08:21.250Z,86.7
2018-01-14T00:09:24.670Z,86.7
2018-01-14T00:10:28.157Z,86.6
2018-01-14T00:11:35.803Z,86.9
2018-01-14T00:12:41.417Z,86.9
2018-01-14T00:13:44.853Z,86.9
2018-01-14T00:14:48.136Z,87
2018-01-14T00:15:52.000Z,86.9
2018-01-14T00:16:55.361Z,87
2018-01-14T00:17:58.478Z,86.9
2018-01-14T00:19:02.544Z,86.9
2018-01-14T00:20:05.862Z,86.7
2018-01-14T00:21:09.733Z,86.6
2018-01-14T00:22:20.953Z,86.5
2018-01-14T00:23:24.484Z,86.6
2018-01-14T00:24:29.982Z,87.2
2018-01-14T00:25:34.339Z,87.1
2018-01-14T00:26:37.907Z,87.1
2018-01-14T00:27:43.171Z,87.1
2018-01-14T00:28:47.199Z,87.1
2018-01-14T00:29:50.411Z,87.1
2018-01-14T00:30:55.218Z,86.9
2018-01-14T00:31:58.475Z,87
2018-01-14T00:33:06.342Z,87.2
2018-01-14T00:34:12.030Z,87.1
2018-01-14T00:35:15.438Z,87.1
2018-01-14T00:36:19.576Z,87.1
2018-01-14T00:37:22.936Z,87.4
2018-01-14T00:38:26.358Z,87.2
2018-01-14T00:39:30.449Z,87.1
2018-01-14T00:40:36.720Z,87.1
2018-01-14T00:41:40.854Z,87
2018-01-14T00:42:44.165Z,86.8
2018-01-14T00:43:51.478Z,86.9
2018-01-14T00:44:57.083Z,86.6
2018-01-14T00:46:00.608Z,86.5
2018-01-14T00:47:08.469Z,86.5
2018-01-14T00:48:13.672Z,86.8
2018-01-14T00:49:17.000Z,86.9
2018-01-14T00:50:21.135Z,87.2
2018-01-14T00:51:27.170Z,86.9
2018-01-14T00:52:30.583Z,86.9
2018-01-14T00:53:36.043Z,87
2018-01-14T00:54:46.150Z,86.8
2018-01-14T00:55:51.792Z,86.8
2018-01-14T00:56:55.254Z,86.9
2018-01-14T00:58:00.686Z,87
2018-01-14T00:59:05.267Z,86.9
2018-01-14T01:00:10.172Z,86.6
2018-01-14T01:01:13.488Z,86.7
2018-01-14T01:02:17.277Z,86.7
2018-01-14T01:03:20.764Z,86.6
2018-01-14T01:04:24.115Z,87
2018-01-14T01:05:31.186Z,87.1
2018-01-14T01:06:34.528Z,87
2018-01-14T01:07:38.450Z,86.9
2018-01-14T01:08:41.955Z,86.9
2018-01-14T01:09:45.473Z,87
2018-01-14T01:10:48.803Z,87.1
2018-01-14T01:11:54.334Z,87.1
2018-01-14T01:12:57.799Z,87
2018-01-14T01:14:01.230Z,87
2018-01-14T01:15:04.819Z,87
2018-01-14T01:16:13.082Z,86.9
2018-01-14T01:17:16.246Z,86.9
2018-01-14T01:18:20.710Z,87
2018-01-14T01:19:24.042Z,87.1
2018-01-14T01:20:27.440Z,87.1
2018-01-14T01:21:30.847Z,86.6
2018-01-14T01:22:36.375Z,86.6
2018-01-14T01:23:42.629Z,86.7
2018-01-14T01:24:46.672Z,86.8
2018-01-14T01:25:50.236Z,86.9
2018-01-14T01:26:59.453Z,86.9
2018-01-14T01:28:03.703Z,87
2018-01-14T01:29:06.945Z,86.6
2018-01-14T01:30:11.599Z,86.7
2018-01-14T01:31:15.032Z,86.6
2018-01-14T01:32:20.194Z,86.7
2018-01-14T01:33:23.741Z,86.8
2018-01-14T01:34:27.367Z,86.8
2018-01-14T01:35:30.832Z,87
2018-01-14T01:36:34.995Z,86.9
2018-01-14T01:37:41.957Z,87.1
2018-01-14T01:38:45.661Z,86.9
2018-01-14T01:39:50.395Z,86.7
2018-01-14T01:40:53.776Z,86.9
2018-01-14T01:41:57.865Z,86.7
2018-01-14T01:43:01.342Z,86.6
2018-01-14T01:44:06.848Z,86.5
2018-01-14T01:45:10.339Z,86.6
2018-01-14T01:46:17.529Z,86.7
2018-01-14T01:47:21.434Z,86.8
2018-01-14T01:48:29.345Z,86.9
2018-01-14T01:49:33.460Z,86.5
2018-01-14T01:50:36.871Z,86.7
2018-01-14T01:51:40.283Z,86.7
2018-01-14T01:52:44.347Z,86.8
2018-01-14T01:53:48.328Z,86.6
2018-01-14T01:54:51.994Z,86.4
2018-01-14T01:55:56.382Z,86.6
2018-01-14T01:56:59.820Z,86.4
2018-01-14T01:58:03.217Z,86.6
2018-01-14T01:59:10.770Z,86.6
2018-01-14T02:00:14.831Z,86.6
2018-01-14T02:01:17.939Z,86.9
2018-01-14T02:02:22.735Z,86.7
2018-01-14T02:03:28.210Z,86.5
2018-01-14T02:04:31.509Z,86.3
2018-01-14T02:05:34.822Z,86.4
2018-01-14T02:06:39.256Z,86.4
2018-01-14T02:07:43.552Z,86.5
2018-01-14T02:08:47.034Z,86.7
2018-01-14T02:09:55.212Z,86.7
2018-01-14T02:10:59.756Z,86.6
2018-01-14T02:12:04.025Z,86.6
2018-01-14T02:13:07.553Z,86.7
2018-01-14T02:14:11.495Z,86.6
2018-01-14T02:15:14.974Z,86.5
2018-01-14T02:16:20.580Z,86.3
2018-01-14T02:17:25.385Z,85.9
2018-01-14T02:18:31.056Z,86.1
2018-01-14T02:19:36.504Z,86.2
2018-01-14T02:20:44.375Z,86.2
2018-01-14T02:21:50.296Z,86.5
2018-01-14T02:22:55.168Z,86.6
2018-01-14T02:23:58.455Z,86.8
2018-01-14T02:25:03.989Z,86.9
2018-01-14T02:26:07.312Z,87
2018-01-14T02:27:12.626Z,86.8
2018-01-14T02:28:16.148Z,86.9
2018-01-14T02:29:19.386Z,87
2018-01-14T02:30:25.238Z,86.9
2018-01-14T02:31:35.956Z,87
2018-01-14T02:32:41.481Z,87.1
2018-01-14T02:33:44.853Z,87.4
2018-01-14T02:34:48.918Z,87.2
2018-01-14T02:35:53.050Z,87.3
2018-01-14T02:36:56.217Z,87.4
2018-01-14T02:37:59.553Z,87.1
2018-01-14T02:39:03.025Z,86.8
2018-01-14T02:40:08.046Z,86.6
2018-01-14T02:41:13.220Z,86.6
2018-01-14T02:42:22.219Z,86.6
2018-01-14T02:43:27.786Z,86.5
2018-01-14T02:44:31.060Z,86.7
2018-01-14T02:45:34.548Z,86.6
2018-01-14T02:46:38.342Z,86.6
2018-01-14T02:47:42.253Z,86.7
2018-01-14T02:48:47.827Z,86.5
2018-01-14T02:49:51.168Z,86.5
2018-01-14T02:50:55.861Z,86.6
2018-01-14T02:51:59.235Z,86.6
2018-01-14T02:53:07.333Z,86.5
2018-01-14T02:54:10.842Z,86.8
2018-01-14T02:55:17.172Z,86.6
2018-01-14T02:56:22.801Z,86.2
2018-01-14T02:57:26.222Z,86.3
2018-01-14T02:58:29.552Z,86
2018-01-14T02:59:36.376Z,86.3
2018-01-14T03:00:39.770Z,86.2
2018-01-14T03:01:45.415Z,86.1
2018-01-14T03:02:49.674Z,86.4
2018-01-14T03:03:57.556Z,86.6
2018-01-14T03:05:03.231Z,86.6
2018-01-14T03:06:07.547Z,86.5
2018-01-14T03:07:11.118Z,86.4
2018-01-14T03:08:15.389Z,86.2
2018-01-14T03:09:19.784Z,86.3
2018-01-14T03:10:25.470Z,86.3
2018-01-14T03:11:29.446Z,86.5
2018-01-14T03:12:35.182Z,86.6
2018-01-14T03:13:38.482Z,86.3
2018-01-14T03:14:46.528Z,86.2
2018-01-14T03:15:51.140Z,86.3
2018-01-14T03:16:54.657Z,86.6
2018-01-14T03:18:00.967Z,86.4
2018-01-14T03:19:04.311Z,86.3
2018-01-14T03:20:07.902Z,86.3
2018-01-14T03:21:11.723Z,86.3
2018-01-14T03:22:15.358Z,86.2
2018-01-14T03:23:18.814Z,86.2
2018-01-14T03:24:22.542Z,86.3
2018-01-14T03:25:31.599Z,86.4
2018-01-14T03:26:34.953Z,86.4
2018-01-14T03:27:40.620Z,86.4
2018-01-14T03:28:44.761Z,86.4
2018-01-14T03:29:49.030Z,86.3
2018-01-14T03:30:52.798Z,86.3
2018-01-14T03:31:59.394Z,86.4
2018-01-14T03:33:05.798Z,86.4
2018-01-14T03:34:09.209Z,86.2
2018-01-14T03:35:13.164Z,86.3
2018-01-14T03:36:19.948Z,86.3
2018-01-14T03:37:23.538Z,86.5
2018-01-14T03:38:28.325Z,86.5
2018-01-14T03:39:33.281Z,86.8
2018-01-14T03:40:39.672Z,86.4
2018-01-14T03:41:45.272Z,86.5
2018-01-14T03:42:48.922Z,86.2
2018-01-14T03:43:52.407Z,86.1
2018-01-14T03:44:55.705Z,86
2018-01-14T03:45:58.779Z,86
2018-01-14T03:47:06.882Z,86.1
2018-01-14T03:48:10.541Z,86
2018-01-14T03:49:13.883Z,85.3
2018-01-14T03:50:17.327Z,85.7
2018-01-14T03:51:20.629Z,85.7
2018-01-14T03:52:24.267Z,85.6
2018-01-14T03:53:27.708Z,85.6
2018-01-14T03:54:30.844Z,85.6
2018-01-14T03:55:34.222Z,85.5
2018-01-14T03:56:39.288Z,85.4
2018-01-14T03:57:48.779Z,85.4
2018-01-14T03:58:54.978Z,85.3
2018-01-14T03:59:58.514Z,85.6
2018-01-14T04:01:04.145Z,85.5
2018-01-14T04:02:07.634Z,85.4
2018-01-14T04:03:10.991Z,85.7
2018-01-14T04:04:14.349Z,85.4
2018-01-14T04:05:17.941Z,85.6
2018-01-14T04:06:21.620Z,85.5
2018-01-14T04:07:25.144Z,85.4
2018-01-14T04:08:33.429Z,85.3
2018-01-14T04:09:36.973Z,85.5
2018-01-14T04:10:40.070Z,85.5
2018-01-14T04:11:43.387Z,85.4
2018-01-14T04:12:46.842Z,85.3
2018-01-14T04:13:50.333Z,85.2
2018-01-14T04:14:56.387Z,85.2
2018-01-14T04:15:59.766Z,85.1
2018-01-14T04:17:04.925Z,85.6
2018-01-14T04:18:10.851Z,85.5
2018-01-14T04:19:19.985Z,85.4
2018-01-14T04:20:26.381Z,85.5
2018-01-14T04:21:29.821Z,85.1
2018-01-14T04:22:33.191Z,85.3
2018-01-14T04:23:39.571Z,85.3
2018-01-14T04:24:42.746Z,85.4
2018-01-14T04:25:45.958Z,85.5
2018-01-14T04:26:49.398Z,85.8
2018-01-14T04:27:52.822Z,85.4
2018-01-14T04:28:56.902Z,85.4
2018-01-14T04:30:06.542Z,85.5
2018-01-14T04:31:09.915Z,85.6
2018-01-14T04:32:14.187Z,85.8
2018-01-14T04:33:17.753Z,85.7
2018-01-14T04:34:21.198Z,85.7
2018-01-14T04:35:25.293Z,85.7
2018-01-14T04:36:29.409Z,85.6
2018-01-14T04:37:32.816Z,85.7
2018-01-14T04:38:36.360Z,85.4
2018-01-14T04:39:39.849Z,85.4
2018-01-14T04:40:47.755Z,85.4
2018-01-14T04:41:51.281Z,85.5
2018-01-14T04:42:56.525Z,85.7
2018-01-14T04:44:00.036Z,85.9
2018-01-14T04:45:03.455Z,85.8
2018-01-14T04:46:07.007Z,85.8
2018-01-14T04:47:10.424Z,85.8
2018-01-14T04:48:13.805Z,85.9
2018-01-14T04:49:17.370Z,85.8
2018-01-14T04:50:20.876Z,85.7
2018-01-14T04:51:29.929Z,85.6
2018-01-14T04:52:36.006Z,85.7
2018-01-14T04:53:39.426Z,85.8
2018-01-14T04:54:44.762Z,85.8
2018-01-14T04:55:49.528Z,85.9
2018-01-14T04:56:52.991Z,85.9
2018-01-14T04:57:57.027Z,86
2018-01-14T04:59:00.385Z,85.9
2018-01-14T05:00:03.967Z,86
2018-01-14T05:01:08.306Z,86
2018-01-14T05:05:46.501Z,86
2018-01-14T05:06:50.669Z,85.9
2018-01-14T05:07:54.958Z,85.8
2018-01-14T05:08:58.365Z,85.7
2018-01-14T05:10:04.815Z,85.6
2018-01-14T05:11:10.438Z,85.6
2018-01-14T05:12:15.199Z,85.8
2018-01-14T05:13:21.431Z,85.9
2018-01-14T05:14:25.762Z,86
2018-01-14T05:15:29.896Z,85.9
2018-01-14T05:16:40.214Z,85.9
2018-01-14T05:17:45.088Z,86
2018-01-14T05:18:48.467Z,86.2
2018-01-14T05:19:52.726Z,85.9
2018-01-14T05:20:56.073Z,85.9
2018-01-14T05:22:02.409Z,86.1
2018-01-14T05:23:08.427Z,85.9
2018-01-14T05:24:13.309Z,86.1
2018-01-14T05:25:17.520Z,86
2018-01-14T05:26:20.767Z,86
2018-01-14T05:27:28.848Z,86.1
2018-01-14T05:28:32.109Z,86
2018-01-14T05:29:36.050Z,85.9
2018-01-14T05:30:39.415Z,85.9
2018-01-14T05:31:42.718Z,86
2018-01-14T05:32:49.004Z,86
2018-01-14T05:33:53.181Z,85.8
2018-01-14T05:34:57.187Z,85.8
2018-01-14T05:36:03.002Z,85.9
2018-01-14T05:37:06.416Z,86
2018-01-14T05:38:15.657Z,86.2
2018-01-14T05:39:19.174Z,86.1
2018-01-14T05:40:24.587Z,85.9
2018-01-14T05:41:28.015Z,85.9
2018-01-14T05:42:31.952Z,85.8
2018-01-14T05:43:36.118Z,85.7
2018-01-14T05:44:39.632Z,85.7
2018-01-14T05:45:45.060Z,85.7
2018-01-14T05:46:49.680Z,85.4
2018-01-14T05:47:53.074Z,85.8
2018-01-14T05:49:00.814Z,85.6
2018-01-14T05:50:04.154Z,85.6
2018-01-14T05:51:07.657Z,85.6
2018-01-14T05:52:13.108Z,85.8
2018-01-14T05:53:19.047Z,85.9
2018-01-14T05:54:23.376Z,85.7
2018-01-14T05:55:26.922Z,85.8
2018-01-14T05:56:33.242Z,85.9
2018-01-14T05:57:36.559Z,85.5
2018-01-14T05:58:42.930Z,85.3
2018-01-14T05:59:50.013Z,85.4
2018-01-14T06:00:53.883Z,85.3
2018-01-14T06:01:58.163Z,85.3
2018-01-14T06:03:01.585Z,85.4
2018-01-14T06:04:04.978Z,85.2
2018-01-14T06:05:09.809Z,85.3
2018-01-14T06:06:13.230Z,85.4
2018-01-14T06:07:18.776Z,86.2
2018-01-14T06:08:22.738Z,85.5
2018-01-14T06:09:27.531Z,85.3
2018-01-14T06:10:35.270Z,85.1
2018-01-14T06:11:39.792Z,85.1
2018-01-14T06:12:44.739Z,85.3
2018-01-14T06:13:48.689Z,85.2
2018-01-14T06:14:52.274Z,85.1
2018-01-14T06:15:56.451Z,85.3
2018-01-14T06:17:00.398Z,85.2
2018-01-14T06:18:04.813Z,85.2
2018-01-14T06:19:08.809Z,85.4
2018-01-14T06:20:13.026Z,85.2
2018-01-14T06:21:53.459Z,85.1
2018-01-14T06:23:00.159Z,85.1
2018-01-14T06:24:04.790Z,85.2
2018-01-14T06:25:08.901Z,85.1
2018-01-14T06:26:12.292Z,84.8
2018-01-14T06:27:17.664Z,84.8
2018-01-14T06:28:21.699Z,85
2018-01-14T06:29:25.104Z,85.2
2018-01-14T06:30:29.279Z,85.1
2018-01-14T06:31:35.368Z,85.1
2018-01-14T06:32:44.821Z,85.1
2018-01-14T06:33:48.853Z,85.1
2018-01-14T06:34:54.351Z,84.9
2018-01-14T06:35:57.845Z,84.8
2018-01-14T06:37:02.492Z,85
2018-01-14T06:38:06.589Z,85.1
2018-01-14T06:39:10.824Z,85.1
2018-01-14T06:40:14.070Z,85.1
2018-01-14T06:41:20.439Z,85.1
2018-01-14T06:42:25.235Z,85.1
2018-01-14T06:43:34.987Z,85
2018-01-14T06:44:40.523Z,85.9
2018-01-14T06:45:46.171Z,85.1
2018-01-14T06:46:51.777Z,85
2018-01-14T06:47:56.358Z,84.8
2018-01-14T06:49:00.364Z,84.8
2018-01-14T06:50:06.119Z,85.2
2018-01-14T06:51:13.393Z,85.2
2018-01-14T06:52:17.511Z,85.1
2018-01-14T06:53:22.325Z,85.1
2018-01-14T06:54:29.758Z,85
2018-01-14T06:55:33.355Z,85.1
2018-01-14T06:56:36.610Z,85.1
2018-01-14T06:57:40.569Z,85.1
2018-01-14T06:58:46.826Z,85.3
2018-01-14T06:59:52.353Z,85.2
2018-01-14T07:00:55.507Z,85.3
2018-01-14T07:01:58.961Z,85.3
2018-01-14T07:03:04.633Z,85.1
2018-01-14T07:04:10.244Z,85.1
2018-01-14T07:05:23.086Z,85.3
2018-01-14T07:06:26.499Z,85.4
2018-01-14T07:07:31.379Z,85.4
2018-01-14T07:08:34.736Z,85.4
2018-01-14T07:09:40.245Z,85.4
2018-01-14T07:10:43.710Z,85.6
2018-01-14T07:11:47.855Z,85.2
2018-01-14T07:12:54.177Z,85.1
2018-01-14T07:13:59.587Z,85.3
2018-01-14T07:15:05.956Z,85.4
2018-01-14T07:16:14.337Z,85.6
2018-01-14T07:17:19.918Z,85.6
2018-01-14T07:18:26.025Z,85.6
2018-01-14T07:19:31.378Z,85.4
2018-01-14T07:20:34.760Z,85
2018-01-14T07:21:39.268Z,85.3
2018-01-14T07:22:43.444Z,85.6
2018-01-14T07:23:51.551Z,85.7
2018-01-14T07:24:56.143Z,85.6
2018-01-14T07:26:00.369Z,85.7
2018-01-14T07:27:09.815Z,85.4
2018-01-14T07:28:16.060Z,85.6
2018-01-14T07:29:20.720Z,85.4
2018-01-14T07:30:27.697Z,85.1
2018-01-14T07:31:32.496Z,85.3
2018-01-14T07:32:37.762Z,85.3
2018-01-14T07:33:45.714Z,85.3
2018-01-14T07:34:49.757Z,85.3
2018-01-14T07:35:56.376Z,85.2
2018-01-14T07:37:03.646Z,85.2
2018-01-14T07:38:13.058Z,85.2
2018-01-14T07:39:16.367Z,85.2
2018-01-14T07:40:19.827Z,85.1
2018-01-14T07:41:25.108Z,85
2018-01-14T07:42:29.106Z,85.3
2018-01-14T07:43:34.393Z,85.3
2018-01-14T07:44:40.211Z,85.3
2018-01-14T07:45:46.023Z,85.3
2018-01-14T07:46:50.653Z,85
2018-01-14T07:47:57.583Z,85.1
2018-01-14T07:49:08.788Z,85.2
2018-01-14T07:50:14.259Z,85.5
2018-01-14T07:51:22.711Z,85.7
2018-01-14T07:52:28.365Z,85.5
2018-01-14T07:53:32.445Z,85.3
2018-01-14T07:54:36.318Z,85
2018-01-14T07:55:41.745Z,85.1
2018-01-14T07:56:45.152Z,85.3
2018-01-14T07:57:51.998Z,85.5
2018-01-14T07:58:59.052Z,85.6
2018-01-14T08:00:12.782Z,85.5
2018-01-14T08:01:17.616Z,85.4
2018-01-14T08:02:24.278Z,85.5
2018-01-14T08:03:29.492Z,85.6
2018-01-14T08:04:34.640Z,85.7
2018-01-14T08:05:39.142Z,85.9
2018-01-14T08:06:45.498Z,85.9
2018-01-14T08:07:51.025Z,85.8
2018-01-14T08:08:57.459Z,85.5
2018-01-14T08:10:01.614Z,85.6
2018-01-14T08:11:20.337Z,85.7
2018-01-14T08:12:27.855Z,85.9
2018-01-14T08:13:33.342Z,86
2018-01-14T08:14:37.114Z,86
2018-01-14T08:15:40.617Z,86.1
2018-01-14T08:16:44.162Z,86.2
2018-01-14T08:17:47.804Z,85.9
2018-01-14T08:18:52.210Z,85.8
2018-01-14T08:19:55.750Z,85.8
2018-01-14T08:21:00.584Z,85.9
2018-01-14T08:22:08.307Z,85.9
2018-01-14T08:23:11.721Z,85.9
2018-01-14T08:24:15.114Z,86
2018-01-14T08:25:20.249Z,86.1
2018-01-14T08:26:23.709Z,86
2018-01-14T08:27:28.504Z,86.1
2018-01-14T08:28:31.882Z,86.1
2018-01-14T08:29:38.040Z,86.2
2018-01-14T08:30:44.289Z,86.3
2018-01-14T08:31:50.452Z,86.4
2018-01-14T08:33:34.932Z,86.8
2018-01-14T08:34:38.556Z,86.8
2018-01-14T08:35:43.651Z,86.8
2018-01-14T08:36:49.276Z,86.8
2018-01-14T08:37:54.063Z,86.8
2018-01-14T08:38:57.979Z,86.5
2018-01-14T08:40:04.068Z,86.4
2018-01-14T08:41:08.070Z,86.6
2018-01-14T08:42:13.562Z,87.4
2018-01-14T08:43:20.332Z,86.6
2018-01-14T08:44:34.363Z,86.6
2018-01-14T08:45:41.718Z,86.5
2018-01-14T08:46:46.788Z,86.5
2018-01-14T08:47:51.532Z,86.6
2018-01-14T08:48:55.496Z,86.5
2018-01-14T08:50:01.010Z,86.2
2018-01-14T08:51:06.366Z,86.3
2018-01-14T08:52:09.991Z,86.3
2018-01-14T08:53:15.245Z,86.3
2018-01-14T08:54:20.758Z,86.3
2018-01-14T08:55:30.737Z,86.5
2018-01-14T08:56:35.361Z,86.5
2018-01-14T08:57:40.892Z,86.4
2018-01-14T08:58:47.114Z,86.3
2018-01-14T08:59:51.111Z,86.2
2018-01-14T09:00:56.472Z,86.3
2018-01-14T09:02:01.230Z,86.5
2018-01-14T09:03:05.248Z,86.6
2018-01-14T09:04:10.355Z,86.7
2018-01-14T09:05:13.884Z,86.8
2018-01-14T09:06:22.870Z,86.8
2018-01-14T09:07:33.977Z,86.5
2018-01-14T09:08:37.959Z,86.6
2018-01-14T09:09:42.509Z,86.8
2018-01-14T09:10:47.261Z,86.8
2018-01-14T09:11:55.495Z,86.8
2018-01-14T09:12:59.630Z,86.9
2018-01-14T09:14:04.989Z,87
2018-01-14T09:15:10.912Z,87
2018-01-14T09:16:20.737Z,87
2018-01-14T09:17:28.489Z,86.9
2018-01-14T09:18:32.588Z,86.8
2018-01-14T09:19:38.014Z,87
2018-01-14T09:20:41.355Z,87
2018-01-14T09:21:47.551Z,86.7
2018-01-14T09:22:53.267Z,86.6
2018-01-14T09:24:00.519Z,86.7
2018-01-14T09:25:07.148Z,86.8
2018-01-14T09:26:14.453Z,86.9
2018-01-14T09:27:22.033Z,86.9
2018-01-14T09:29:07.457Z,86.6
2018-01-14T09:30:25.331Z,86.4
2018-01-14T09:31:38.358Z,86.4
2018-01-14T09:32:46.082Z,86.5
2018-01-14T09:33:54.555Z,86.4
2018-01-14T09:35:13.196Z,86.3
2018-01-14T09:36:22.001Z,86
2018-01-14T09:37:39.940Z,86.3
2018-01-14T09:38:50.123Z,86.3
2018-01-14T09:39:59.271Z,86.2
2018-01-14T09:41:50.270Z,86.2
2018-01-14T09:42:58.361Z,86.3
2018-01-14T09:44:07.644Z,86.6
2018-01-14T09:45:19.264Z,86.6
2018-01-14T09:46:23.888Z,86.8
2018-01-14T09:47:27.500Z,86.6
2018-01-14T09:48:30.741Z,86.5
2018-01-14T09:49:35.086Z,86.4
2018-01-14T09:50:39.112Z,86.5
2018-01-14T09:51:42.614Z,86.3
2018-01-14T09:52:50.018Z,86.1
2018-01-14T09:53:53.546Z,86.2
2018-01-14T09:54:57.108Z,86.3
2018-01-14T09:56:02.061Z,86.2
2018-01-14T09:57:05.585Z,86.1
2018-01-14T09:58:10.267Z,86.3
2018-01-14T09:59:14.227Z,86.4
2018-01-14T10:00:17.728Z,86.4
2018-01-14T10:01:21.278Z,86.6
2018-01-14T10:02:25.382Z,86.6
2018-01-14T10:03:33.337Z,86.6
2018-01-14T10:04:36.873Z,86.6
2018-01-14T10:05:40.392Z,86.7
2018-01-14T10:06:43.919Z,86.6
2018-01-14T10:07:47.991Z,86.3
2018-01-14T10:08:52.452Z,86.4
2018-01-14T10:09:55.944Z,86.8
2018-01-14T10:11:00.802Z,86.7
2018-01-14T10:12:04.239Z,86.8
2018-01-14T10:13:08.606Z,86.8
2018-01-14T10:14:16.817Z,86.9
2018-01-14T10:15:20.202Z,86.8
2018-01-14T10:16:23.669Z,86.9
2018-01-14T10:17:27.314Z,87.1
2018-01-14T10:18:30.902Z,86.8
2018-01-14T10:19:34.360Z,87
2018-01-14T10:20:37.955Z,87.1
2018-01-14T10:21:41.958Z,87.2
2018-01-14T10:22:45.425Z,87.5
2018-01-14T10:23:49.666Z,87.2
2018-01-14T10:24:59.354Z,87.2
2018-01-14T10:26:02.933Z,87.2
2018-01-14T10:27:06.937Z,86.9
2018-01-14T10:28:11.615Z,86.6
2018-01-14T10:29:15.235Z,86.3
2018-01-14T10:30:25.449Z,86.4
2018-01-14T10:31:28.959Z,86.5
2018-01-14T10:32:33.068Z,86.7
2018-01-14T10:33:37.912Z,86.8
2018-01-14T10:34:41.995Z,86.7
2018-01-14T10:35:49.902Z,86.5
2018-01-14T10:36:54.091Z,86.5
2018-01-14T10:37:57.625Z,86.5
2018-01-14T10:39:01.148Z,86.4
2018-01-14T10:40:05.384Z,86.4
2018-01-14T10:41:09.823Z,86.4
2018-01-14T10:42:13.214Z,86.2
2018-01-14T10:43:19.059Z,86.2
2018-01-14T10:44:23.800Z,86.2
2018-01-14T10:45:29.258Z,86.3
2018-01-14T10:46:38.241Z,86.2
2018-01-14T10:47:42.323Z,85.8
2018-01-14T10:48:47.529Z,86
2018-01-14T10:50:01.136Z,86
2018-01-14T10:51:04.706Z,86.1
2018-01-14T10:52:08.165Z,86
2018-01-14T10:53:12.875Z,85.3
2018-01-14T10:54:16.477Z,85.4
2018-01-14T10:55:20.061Z,84.9
2018-01-14T10:56:25.172Z,84.6
2018-01-14T10:57:32.957Z,84.9
2018-01-14T10:58:37.076Z,85
2018-01-14T10:59:41.025Z,85
2018-01-14T11:00:44.590Z,84.5
2018-01-14T11:01:49.728Z,84.5
2018-01-14T11:02:55.882Z,84.6
2018-01-14T11:04:00.061Z,84.9
2018-01-14T11:05:05.255Z,84.6
2018-01-14T11:06:11.612Z,84.8
2018-01-14T11:07:15.189Z,84.3
2018-01-14T11:08:23.098Z,84.5
2018-01-14T11:09:26.722Z,84.8
2018-01-14T11:10:30.593Z,84.7
2018-01-14T11:11:37.168Z,84.4
2018-01-14T11:12:41.418Z,84.5
2018-01-14T11:13:45.637Z,84.2
2018-01-14T11:14:49.535Z,84
2018-01-14T11:15:53.951Z,83.8
2018-01-14T11:16:58.436Z,84
2018-01-14T11:18:02.788Z,83.9
2018-01-14T11:19:56.436Z,84
2018-01-14T11:21:04.107Z,83.7
2018-01-14T11:22:10.474Z,83.8
2018-01-14T11:23:14.972Z,83.7
2018-01-14T11:24:20.178Z,83.8
2018-01-14T11:25:26.750Z,84
2018-01-14T11:26:32.452Z,84.1
2018-01-14T11:27:37.270Z,83.4
2018-01-14T11:28:42.353Z,83.3
2018-01-14T11:29:45.946Z,83.2
2018-01-14T11:30:52.832Z,83.1
2018-01-14T11:31:56.304Z,83.4
2018-01-14T11:33:00.410Z,83.1
2018-01-14T11:34:04.121Z,82.6
2018-01-14T11:35:08.321Z,82.7
2018-01-14T11:36:13.245Z,82.8
2018-01-14T11:37:16.899Z,82.5
2018-01-14T11:38:21.767Z,82.3
2018-01-14T11:39:26.180Z,82.1
2018-01-14T11:40:30.416Z,82.4
2018-01-14T11:41:39.296Z,82.5
2018-01-14T11:42:42.935Z,82.7
2018-01-14T11:43:47.521Z,82.5
2018-01-14T11:44:51.033Z,82.6
2018-01-14T11:45:54.638Z,82.7
2018-01-14T11:46:58.296Z,82.6
2018-01-14T11:48:03.118Z,82.2
2018-01-14T11:49:07.193Z,82.5
2018-01-14T11:50:11.704Z,82.5
2018-01-14T11:51:15.121Z,82.4
2018-01-14T11:52:23.414Z,82.2
2018-01-14T11:53:26.617Z,82.1
2018-01-14T11:54:31.513Z,82.1
2018-01-14T11:55:35.882Z,82.2
2018-01-14T11:56:39.425Z,81.6
2018-01-14T11:57:42.589Z,81.6
2018-01-14T11:58:46.654Z,81.9
2018-01-14T11:59:50.226Z,82.5
2018-01-14T12:00:54.640Z,81.3
2018-01-14T12:01:58.087Z,81.5
2018-01-14T12:03:06.016Z,81.5
2018-01-14T12:04:09.992Z,81.5
2018-01-14T12:05:14.331Z,81.4
2018-01-14T12:06:17.635Z,81.4
2018-01-14T12:07:21.804Z,81.2
2018-01-14T12:08:25.082Z,81
2018-01-14T12:09:30.120Z,81.2
2018-01-14T12:10:34.512Z,81.4
2018-01-14T12:11:38.074Z,81.7
2018-01-14T12:12:42.198Z,81.3
2018-01-14T12:13:51.632Z,81
2018-01-14T12:14:55.413Z,80.8
2018-01-14T12:15:59.059Z,81
2018-01-14T12:17:03.772Z,80.9
2018-01-14T12:18:09.775Z,81.2
2018-01-14T12:19:13.950Z,81.3
2018-01-14T12:20:20.602Z,80.4
2018-01-14T12:21:25.401Z,80.6
2018-01-14T12:22:29.334Z,80.7
2018-01-14T12:23:33.553Z,80.7
2018-01-14T12:25:46.809Z,80.9
2018-01-14T12:26:51.843Z,80.5
2018-01-14T12:27:57.739Z,79.3
2018-01-14T12:29:02.933Z,80.2
2018-01-14T12:30:06.348Z,80.2
2018-01-14T12:31:09.873Z,80.1
2018-01-14T12:32:14.090Z,80
2018-01-14T12:33:19.933Z,79.6
2018-01-14T12:34:25.187Z,79.7
2018-01-14T12:35:29.254Z,79.3
2018-01-14T12:36:40.676Z,79.5
2018-01-14T12:37:47.072Z,80
2018-01-14T12:38:51.490Z,79.9
2018-01-14T12:39:57.252Z,79.2
2018-01-14T12:41:01.290Z,78.5
2018-01-14T12:42:07.029Z,78.4
2018-01-14T12:43:10.671Z,77.7
2018-01-14T12:44:15.209Z,78.1
2018-01-14T12:45:18.757Z,78.4
2018-01-14T12:46:24.190Z,78.1
2018-01-14T12:47:32.186Z,78.7
2018-01-14T12:48:35.800Z,78.9
2018-01-14T12:49:39.900Z,78.4
2018-01-14T12:50:43.720Z,78.4
2018-01-14T12:51:47.228Z,78.3
2018-01-14T12:52:51.734Z,78.5
2018-01-14T12:53:57.211Z,78.1
2018-01-14T12:55:00.744Z,77.3
2018-01-14T12:56:04.158Z,77.6
2018-01-14T12:57:08.395Z,78
2018-01-14T12:58:16.080Z,78.3
2018-01-14T12:59:19.739Z,78.3
2018-01-14T13:00:23.919Z,77.4
2018-01-14T13:01:28.262Z,76.9
2018-01-14T13:02:31.713Z,76.6
2018-01-14T13:03:35.875Z,76.6
2018-01-14T13:04:39.362Z,77.4
2018-01-14T13:05:43.725Z,77.9
2018-01-14T13:06:47.162Z,78
2018-01-14T13:07:50.665Z,78.4
2018-01-14T13:08:59.868Z,78.1
2018-01-14T13:10:04.020Z,78.2
2018-01-14T13:11:07.594Z,77.8
2018-01-14T13:12:11.034Z,77.7
2018-01-14T13:13:14.421Z,77.6
2018-01-14T13:14:17.856Z,77.6
2018-01-14T13:15:22.865Z,77.9
2018-01-14T13:16:26.082Z,77.8
2018-01-14T13:17:30.950Z,77.5
2018-01-14T13:18:35.066Z,78.2
2018-01-14T13:19:43.970Z,78.3
2018-01-14T13:20:47.788Z,78.2
2018-01-14T13:21:51.907Z,77.7
2018-01-14T13:22:56.169Z,78.1
2018-01-14T13:23:59.575Z,78.2
2018-01-14T13:25:03.060Z,77.9
2018-01-14T13:26:08.127Z,77.4
2018-01-14T13:27:11.759Z,77.5
2018-01-14T13:28:15.724Z,77.7
2018-01-14T13:29:19.866Z,78.3
2018-01-14T13:30:28.272Z,78.7
2018-01-14T13:31:33.326Z,78.2
2018-01-14T13:32:36.782Z,78.4
2018-01-14T13:33:40.836Z,77.8
2018-01-14T13:34:44.872Z,77.8
2018-01-14T13:35:50.837Z,77.8
2018-01-14T13:36:54.944Z,78.1
2018-01-14T13:37:58.529Z,78
2018-01-14T13:39:02.088Z,78
2018-01-14T13:40:05.490Z,77.2
2018-01-14T13:41:13.138Z,76.8
2018-01-14T13:42:16.433Z,76.5
2018-01-14T13:43:19.786Z,76.6
2018-01-14T13:44:23.305Z,76.9
2018-01-14T13:45:26.738Z,76
2018-01-14T13:46:30.169Z,76.3
2018-01-14T13:47:33.667Z,76.9
2018-01-14T13:48:36.972Z,77
2018-01-14T13:49:41.461Z,77.1
2018-01-14T13:50:45.553Z,77.2
2018-01-14T13:51:53.097Z,77.1
2018-01-14T13:52:57.062Z,76.9
2018-01-14T13:54:00.457Z,77
2018-01-14T13:55:13.664Z,77.4
2018-01-14T13:56:18.980Z,77.6
2018-01-14T13:57:23.574Z,77.6
2018-01-14T13:58:27.215Z,77.3
2018-01-14T13:59:30.636Z,76.6
2018-01-14T14:00:34.088Z,76.3
2018-01-14T14:01:38.054Z,76.8
2018-01-14T14:02:45.057Z,76.4
2018-01-14T14:03:48.405Z,76.6
2018-01-14T14:04:51.905Z,76.6
2018-01-14T14:05:55.963Z,77.6
2018-01-14T14:07:00.724Z,76.9
2018-01-14T14:08:04.677Z,76.5
2018-01-14T14:09:12.917Z,76.3
2018-01-14T14:10:18.656Z,76
2018-01-14T14:11:28.920Z,76.8
2018-01-14T14:12:32.981Z,76.2
2018-01-14T14:13:40.653Z,76.2
2018-01-14T14:14:44.123Z,76
2018-01-14T14:15:47.793Z,76.4
2018-01-14T14:16:51.209Z,76.4
2018-01-14T14:17:54.670Z,76.8
2018-01-14T14:18:58.031Z,76
2018-01-14T14:20:01.379Z,75.9
2018-01-14T14:21:04.887Z,76.6
2018-01-14T14:22:08.398Z,76.6
2018-01-14T14:23:12.546Z,76.6
2018-01-14T14:24:19.460Z,77
2018-01-14T14:25:22.853Z,76.4
2018-01-14T14:26:26.182Z,76.1
2018-01-14T14:27:29.701Z,77
2018-01-14T14:28:33.474Z,77.2
2018-01-14T14:29:36.748Z,76.9
2018-01-14T14:30:40.097Z,76.4
2018-01-14T14:31:44.896Z,76.6
2018-01-14T14:32:48.419Z,76.6
2018-01-14T14:33:53.161Z,76.8
2018-01-14T14:35:01.198Z,77.1
2018-01-14T14:36:04.572Z,76.9
2018-01-14T14:37:08.184Z,76.8
2018-01-14T14:38:13.409Z,76.4